createdAt,value
2023-03-03T00:03:51.725Z,2.80
2023-03-03T00:07:53.651Z,2.80
2023-03-03T00:11:58.499Z,2.90
2023-03-03T00:16:25.410Z,2.90
2023-03-03T00:20:39.230Z,3.00
2023-03-03T00:24:41.110Z,3.10
2023-03-03T00:28:49.142Z,3.10
2023-03-03T00:32:53.072Z,3.00
2023-03-03T00:36:56.903Z,3.00
2023-03-03T00:40:58.906Z,3.20
2023-03-03T00:45:01.246Z,3.40
2023-03-03T00:49:15.924Z,3.20
2023-03-03T00:53:19.792Z,3.30
2023-03-03T00:57:22.066Z,2.70
2023-03-03T01:01:25.775Z,3.10
2023-03-03T01:05:29.537Z,3.30
2023-03-03T01:09:31.472Z,3.50
2023-03-03T01:13:37.913Z,3.60
2023-03-03T01:17:40.212Z,3.60
2023-03-03T01:21:42.048Z,3.50
2023-03-03T01:25:43.956Z,3.50
2023-03-03T01:29:45.888Z,3.50
2023-03-03T01:33:47.716Z,3.60
2023-03-03T01:37:49.674Z,3.80
2023-03-03T01:41:51.511Z,3.60
2023-03-03T01:45:54.020Z,3.70
2023-03-03T01:50:03.573Z,3.70
2023-03-03T01:54:11.151Z,3.70
2023-03-03T01:59:04.191Z,3.70
2023-03-03T02:03:06.530Z,3.70
2023-03-03T02:07:14.437Z,3.60
2023-03-03T02:11:16.741Z,3.70
2023-03-03T02:15:24.584Z,3.60
2023-03-03T02:19:48.112Z,3.70
2023-03-03T02:23:53.221Z,3.70
2023-03-03T02:27:57.476Z,3.60
2023-03-03T02:31:59.608Z,3.30
2023-03-03T02:36:01.643Z,3.40
2023-03-03T02:40:04.593Z,3.50
2023-03-03T02:44:11.224Z,3.60
2023-03-03T02:48:13.052Z,3.40
2023-03-03T02:52:18.093Z,3.50
2023-03-03T02:56:21.871Z,3.60
2023-03-03T03:00:23.915Z,3.50
2023-03-03T03:04:27.688Z,3.30
2023-03-03T03:08:30.465Z,3.10
2023-03-03T03:12:32.811Z,3.10
2023-03-03T03:16:36.665Z,3.30
2023-03-03T03:20:41.548Z,3.30
2023-03-03T03:24:44.763Z,3.50
2023-03-03T03:28:48.982Z,3.50
2023-03-03T03:32:51.435Z,3.70
2023-03-03T03:36:53.876Z,3.50
2023-03-03T03:40:58.502Z,3.40
2023-03-03T03:45:00.404Z,3.50
2023-03-03T03:49:02.573Z,3.50
2023-03-03T03:53:06.148Z,3.30
2023-03-03T03:57:08.351Z,3.30
2023-03-03T04:01:11.026Z,3.20
2023-03-03T04:05:20.485Z,3.40
2023-03-03T04:09:22.908Z,3.70
2023-03-03T04:13:28.875Z,3.50
2023-03-03T04:17:31.278Z,3.50
2023-03-03T04:21:33.228Z,3.70
2023-03-03T04:25:35.632Z,3.80
2023-03-03T04:29:46.887Z,3.50
2023-03-03T04:33:49.096Z,3.60
2023-03-03T04:37:51.692Z,3.70
2023-03-03T04:41:53.586Z,3.80
2023-03-03T04:45:55.801Z,3.70
2023-03-03T04:49:58.361Z,3.50
2023-03-03T04:54:00.706Z,3.60
2023-03-03T04:58:04.301Z,3.60
2023-03-03T05:02:06.605Z,3.70
2023-03-03T05:06:08.539Z,3.70
2023-03-03T05:10:11.043Z,3.80
2023-03-03T05:14:12.980Z,3.70
2023-03-03T05:18:14.831Z,3.80
2023-03-03T05:22:16.761Z,3.90
2023-03-03T05:26:18.607Z,3.90
2023-03-03T05:30:20.609Z,4.00
2023-03-03T05:34:22.475Z,3.90
2023-03-03T05:38:25.250Z,4.00
2023-03-03T05:42:27.141Z,4.00
2023-03-03T05:46:29.099Z,4.00
2023-03-03T05:50:31.424Z,3.90
2023-03-03T05:54:33.291Z,3.90
2023-03-03T05:58:35.214Z,4.00
2023-03-03T06:02:37.119Z,3.80
2023-03-03T06:06:39.036Z,3.90
2023-03-03T06:10:40.911Z,3.90
2023-03-03T06:14:45.029Z,3.90
2023-03-03T06:18:47.163Z,3.80
2023-03-03T06:22:49.007Z,3.80
2023-03-03T06:26:51.702Z,3.80
2023-03-03T06:30:54.960Z,3.80
2023-03-03T06:34:57.002Z,3.80
2023-03-03T06:38:58.894Z,3.90
2023-03-03T06:43:03.271Z,3.90
2023-03-03T06:47:05.969Z,3.80
2023-03-03T06:51:33.631Z,3.70
2023-03-03T06:55:35.600Z,3.90
2023-03-03T06:59:37.426Z,3.90
2023-03-03T07:03:39.448Z,4.00
2023-03-03T07:07:41.438Z,3.70
2023-03-03T07:11:46.211Z,3.80
2023-03-03T07:15:50.478Z,3.90
2023-03-03T07:19:52.476Z,4.00
2023-03-03T07:23:54.717Z,4.00
2023-03-03T07:28:01.141Z,3.80
2023-03-03T07:32:04.454Z,3.90
2023-03-03T07:36:19.825Z,3.90
2023-03-03T07:40:31.642Z,3.90
2023-03-03T07:44:38.071Z,3.60
2023-03-03T07:48:42.089Z,3.70
2023-03-03T07:52:56.774Z,3.40
2023-03-03T07:57:20.795Z,3.20
2023-03-03T08:01:39.665Z,3.30
2023-03-03T08:05:50.312Z,3.70
2023-03-03T08:09:57.077Z,4.00
2023-03-03T08:13:59.490Z,4.00
2023-03-03T08:18:01.842Z,3.60
2023-03-03T08:22:14.973Z,3.60
2023-03-03T08:26:17.195Z,3.80
2023-03-03T08:30:19.104Z,3.80
2023-03-03T08:34:20.957Z,4.00
2023-03-03T08:38:23.403Z,4.10
2023-03-03T08:42:25.253Z,4.30
2023-03-03T08:46:28.700Z,4.40
2023-03-03T08:50:30.749Z,3.70
2023-03-03T08:54:33.083Z,3.90
2023-03-03T08:58:36.301Z,4.40
2023-03-03T09:02:39.220Z,4.40
2023-03-03T09:06:41.146Z,4.50
2023-03-03T09:10:43.016Z,4.70
2023-03-03T09:14:45.224Z,4.80
2023-03-03T09:18:47.095Z,4.60
2023-03-03T09:22:50.362Z,4.40
2023-03-03T09:26:53.205Z,2.80
2023-03-03T09:30:58.586Z,3.50
2023-03-03T09:35:20.950Z,4.20
2023-03-03T09:39:26.418Z,4.30
2023-03-03T09:43:43.544Z,3.80
2023-03-03T09:48:00.128Z,3.60
2023-03-03T09:52:39.493Z,3.40
2023-03-03T09:57:09.835Z,3.60
2023-03-03T10:01:45.535Z,3.60
2023-03-03T10:06:09.664Z,4.20
2023-03-03T10:10:31.372Z,3.90
2023-03-03T10:15:07.048Z,3.20
2023-03-03T10:19:34.185Z,4.00
2023-03-03T10:23:58.329Z,4.70
2023-03-03T10:28:32.480Z,3.80
2023-03-03T10:33:15.653Z,4.20
2023-03-03T10:37:17.602Z,4.10
2023-03-03T10:42:04.587Z,4.50
2023-03-03T10:46:14.992Z,3.10
2023-03-03T10:50:30.786Z,3.40
2023-03-03T10:54:47.916Z,3.00
2023-03-03T10:59:02.102Z,2.80
2023-03-03T11:03:22.010Z,1.80
2023-03-03T11:07:54.630Z,2.70
2023-03-03T11:12:13.170Z,2.70
2023-03-03T11:16:47.577Z,4.20
2023-03-03T11:21:04.531Z,5.10
2023-03-03T11:25:23.472Z,5.20
2023-03-03T11:29:35.807Z,4.50
2023-03-03T11:33:46.537Z,4.90
2023-03-03T11:38:20.133Z,5.60
2023-03-03T11:42:26.665Z,6.10
2023-03-03T11:46:49.929Z,5.50
2023-03-03T11:51:02.789Z,5.90
2023-03-03T11:55:13.562Z,5.70
2023-03-03T11:59:36.671Z,6.10
2023-03-03T12:03:49.325Z,5.80
2023-03-03T12:08:16.286Z,6.00
2023-03-03T12:12:27.846Z,5.00
2023-03-03T12:16:29.665Z,5.10
2023-03-03T12:20:55.810Z,5.60
2023-03-03T12:25:19.625Z,5.40
2023-03-03T12:29:36.167Z,6.30
2023-03-03T12:33:49.791Z,5.50
2023-03-03T12:38:00.712Z,5.40
2023-03-03T12:42:22.128Z,5.60
2023-03-03T12:46:42.939Z,5.60
2023-03-03T12:51:10.864Z,5.90
2023-03-03T12:55:30.516Z,6.20
2023-03-03T13:00:17.092Z,6.00
2023-03-03T13:04:33.683Z,5.70
2023-03-03T13:08:54.001Z,6.20
2023-03-03T13:13:05.642Z,6.30
2023-03-03T13:17:19.433Z,6.90
2023-03-03T13:21:30.195Z,6.80
2023-03-03T13:25:38.079Z,6.90
2023-03-03T13:29:56.742Z,6.90
2023-03-03T13:34:00.480Z,6.20
2023-03-03T13:38:03.230Z,6.60
2023-03-03T13:42:29.976Z,6.60
2023-03-03T13:46:57.025Z,6.40
2023-03-03T13:51:19.619Z,6.90
2023-03-03T13:55:26.456Z,7.10
2023-03-03T13:59:52.270Z,7.30
2023-03-03T14:03:59.712Z,7.20
2023-03-03T14:08:27.879Z,7.40
2023-03-03T14:12:39.165Z,7.00
2023-03-03T14:16:58.643Z,7.60
2023-03-03T14:21:09.303Z,7.50
2023-03-03T14:25:15.701Z,7.90
2023-03-03T14:29:26.233Z,7.70
2023-03-03T14:33:32.251Z,7.90
2023-03-03T14:37:44.895Z,7.70
2023-03-03T14:41:46.974Z,7.60
2023-03-03T14:45:49.182Z,7.10
2023-03-03T14:49:52.259Z,7.50
2023-03-03T14:53:55.444Z,7.80
2023-03-03T14:57:58.454Z,7.80
2023-03-03T15:02:18.701Z,7.30
2023-03-03T15:06:56.423Z,6.20
2023-03-03T15:11:14.001Z,5.20
2023-03-03T15:15:25.574Z,4.70
2023-03-03T15:19:46.451Z,5.20
2023-03-03T15:24:12.344Z,5.60
2023-03-03T15:28:47.496Z,6.10
2023-03-03T15:32:56.919Z,6.70
2023-03-03T15:37:32.205Z,6.70
2023-03-03T15:41:54.351Z,7.10
2023-03-03T15:46:22.296Z,7.20
2023-03-03T15:50:51.685Z,7.70
2023-03-03T15:55:11.985Z,6.50
2023-03-03T15:59:45.040Z,6.30
2023-03-03T16:04:11.100Z,7.30
2023-03-03T16:08:17.588Z,7.70
2023-03-03T16:12:22.198Z,6.80
2023-03-03T16:16:42.342Z,6.90
2023-03-03T16:21:02.894Z,6.10
2023-03-03T16:25:42.247Z,6.80
2023-03-03T16:29:55.469Z,6.50
2023-03-03T16:34:26.501Z,6.90
2023-03-03T16:38:32.466Z,6.90
2023-03-03T16:42:34.563Z,7.50
2023-03-03T16:46:46.302Z,6.40
2023-03-03T16:50:58.412Z,6.50
2023-03-03T16:55:12.914Z,6.80
2023-03-03T16:59:17.579Z,7.20
2023-03-03T17:03:24.972Z,6.80
2023-03-03T17:07:54.377Z,7.00
2023-03-03T17:12:13.585Z,7.20
2023-03-03T17:16:52.306Z,7.30
2023-03-03T17:20:58.137Z,7.40
2023-03-03T17:25:45.823Z,7.40
2023-03-03T17:29:53.282Z,7.10
2023-03-03T17:34:16.184Z,6.50
2023-03-03T17:38:42.641Z,6.20
2023-03-03T17:43:07.451Z,5.90
2023-03-03T17:47:16.658Z,5.70
2023-03-03T17:51:21.571Z,5.80
2023-03-03T17:55:47.865Z,5.80
2023-03-03T18:00:11.161Z,5.70
2023-03-03T18:04:15.941Z,5.70
2023-03-03T18:08:36.325Z,5.60
2023-03-03T18:13:00.018Z,5.60
2023-03-03T18:17:35.591Z,5.30
2023-03-03T18:21:43.608Z,4.90
2023-03-03T18:26:01.115Z,4.70
2023-03-03T18:30:18.239Z,4.50
2023-03-03T18:34:20.056Z,4.60
2023-03-03T18:38:30.369Z,4.70
2023-03-03T18:42:42.668Z,4.50
2023-03-03T18:46:49.422Z,4.40
2023-03-03T18:50:52.501Z,4.40
2023-03-03T18:55:09.613Z,4.40
2023-03-03T18:59:31.655Z,4.20
2023-03-03T19:03:33.824Z,4.00
2023-03-03T19:07:59.169Z,3.80
2023-03-03T19:12:01.040Z,3.70
2023-03-03T19:16:09.361Z,3.80
2023-03-03T19:20:15.364Z,3.80
2023-03-03T19:24:27.978Z,3.70
2023-03-03T19:28:40.284Z,3.60
2023-03-03T19:33:11.994Z,3.60
2023-03-03T19:37:19.652Z,3.60
2023-03-03T19:42:01.235Z,3.40
2023-03-03T19:46:27.609Z,3.30
2023-03-03T19:50:29.395Z,3.40
2023-03-03T19:54:37.458Z,3.60
2023-03-03T19:59:07.304Z,3.30
2023-03-03T20:03:46.444Z,3.30
2023-03-03T20:08:25.600Z,3.40
2023-03-03T20:12:39.744Z,3.40
2023-03-03T20:16:45.108Z,3.30
2023-03-03T20:21:13.855Z,3.40
2023-03-03T20:25:33.706Z,3.30
2023-03-03T20:29:57.590Z,3.30
2023-03-03T20:34:26.946Z,3.30
2023-03-03T20:38:47.192Z,2.90
2023-03-03T20:43:19.704Z,2.30
2023-03-03T20:47:52.083Z,2.70
2023-03-03T20:51:53.879Z,2.90
2023-03-03T20:56:04.576Z,2.80
2023-03-03T21:00:27.933Z,2.40
2023-03-03T21:04:31.379Z,1.90
2023-03-03T21:08:49.466Z,2.50
2023-03-03T21:12:56.777Z,2.70
2023-03-03T21:17:02.604Z,1.80
2023-03-03T21:21:05.129Z,1.70
2023-03-03T21:25:07.303Z,1.50
2023-03-03T21:29:09.211Z,1.60
2023-03-03T21:33:11.094Z,1.90
2023-03-03T21:37:43.996Z,1.70
2023-03-03T21:41:53.375Z,1.80
2023-03-03T21:45:55.498Z,1.80
2023-03-03T21:49:57.372Z,1.30
2023-03-03T21:53:59.244Z,1.90
2023-03-03T21:58:01.110Z,1.60
2023-03-03T22:02:03.696Z,1.40
2023-03-03T22:06:05.825Z,1.00
2023-03-03T22:10:09.921Z,1.10
2023-03-03T22:14:12.273Z,0.60
2023-03-03T22:18:14.937Z,1.20
2023-03-03T22:22:16.783Z,1.10
2023-03-03T22:26:18.648Z,0.00
2023-03-03T22:30:20.610Z,-0.40
2023-03-03T22:34:22.424Z,-1.10
2023-03-03T22:38:25.096Z,-0.70
2023-03-03T22:42:26.926Z,-1.30
2023-03-03T22:46:29.001Z,-0.20
2023-03-03T22:50:30.870Z,-0.20
2023-03-03T22:54:32.723Z,-0.40
2023-03-03T22:58:34.537Z,0.30
2023-03-03T23:02:36.376Z,-0.10
2023-03-03T23:06:38.226Z,-0.20
2023-03-03T23:10:40.142Z,-0.40
2023-03-03T23:14:42.038Z,-1.10
2023-03-03T23:18:43.896Z,-0.30
2023-03-03T23:22:46.473Z,-0.30
2023-03-03T23:26:51.766Z,0.00
2023-03-03T23:30:53.672Z,-0.30
2023-03-03T23:34:55.580Z,-0.50
2023-03-03T23:38:57.460Z,-1.00
2023-03-03T23:42:59.289Z,-0.70
2023-03-03T23:47:01.111Z,-0.50
2023-03-03T23:51:03.399Z,-0.50
2023-03-03T23:55:06.319Z,-1.00
2023-03-03T23:59:08.220Z,-0.40
